sensor_id;sensor_type;location;lat;lon;timestamp;P1;durP1;ratioP1;P2;durP2;ratioP2
22502;SDS011;11418;48.118;9.992;2023-02-15T00:03:44;22.38;;;4.93;;
22502;SDS011;11418;48.118;9.992;2023-02-15T00:07:44;23.83;;;5.38;;
22502;SDS011;11418;48.118;9.992;2023-02-15T00:11:45;14.50;;;4.97;;
22502;SDS011;11418;48.118;9.992;2023-02-15T00:15:50;8.93;;;4.38;;
22502;SDS011;11418;48.118;9.992;2023-02-15T00:19:50;17.55;;;4.97;;
22502;SDS011;11418;48.118;9.992;2023-02-15T00:23:51;25.45;;;5.65;;
22502;SDS011;11418;48.118;9.992;2023-02-15T00:27:51;38.75;;;5.10;;
22502;SDS011;11418;48.118;9.992;2023-02-15T00:31:52;17.88;;;4.47;;
22502;SDS011;11418;48.118;9.992;2023-02-15T00:35:59;1.95;;;1.63;;
22502;SDS011;11418;48.118;9.992;2023-02-15T00:40:01;2.75;;;2.22;;
22502;SDS011;11418;48.118;9.992;2023-02-15T00:44:01;36.33;;;4.53;;
22502;SDS011;11418;48.118;9.992;2023-02-15T00:48:02;19.83;;;5.22;;
22502;SDS011;11418;48.118;9.992;2023-02-15T00:52:03;44.90;;;5.63;;
22502;SDS011;11418;48.118;9.992;2023-02-15T00:56:04;6.55;;;3.70;;
22502;SDS011;11418;48.118;9.992;2023-02-15T01:00:04;6.32;;;3.85;;
22502;SDS011;11418;48.118;9.992;2023-02-15T01:04:05;9.98;;;4.00;;
22502;SDS011;11418;48.118;9.992;2023-02-15T01:08:06;23.55;;;4.80;;
22502;SDS011;11418;48.118;9.992;2023-02-15T01:12:07;9.55;;;4.25;;
22502;SDS011;11418;48.118;9.992;2023-02-15T01:16:08;31.27;;;5.47;;
22502;SDS011;11418;48.118;9.992;2023-02-15T01:20:09;25.02;;;4.47;;
22502;SDS011;11418;48.118;9.992;2023-02-15T01:24:11;25.42;;;5.03;;
22502;SDS011;11418;48.118;9.992;2023-02-15T01:28:13;8.57;;;4.60;;
22502;SDS011;11418;48.118;9.992;2023-02-15T01:32:14;9.65;;;5.03;;
22502;SDS011;11418;48.118;9.992;2023-02-15T01:36:14;15.00;;;5.10;;
22502;SDS011;11418;48.118;9.992;2023-02-15T01:40:17;8.88;;;4.45;;
22502;SDS011;11418;48.118;9.992;2023-02-15T01:48:47;34.38;;;5.88;;
22502;SDS011;11418;48.118;9.992;2023-02-15T01:56:58;33.08;;;5.05;;
22502;SDS011;11418;48.118;9.992;2023-02-15T02:01:03;17.13;;;4.95;;
22502;SDS011;11418;48.118;9.992;2023-02-15T02:05:07;29.38;;;5.18;;
22502;SDS011;11418;48.118;9.992;2023-02-15T02:09:08;12.93;;;3.95;;
22502;SDS011;11418;48.118;9.992;2023-02-15T02:13:08;17.25;;;4.57;;
22502;SDS011;11418;48.118;9.992;2023-02-15T02:17:15;14.18;;;4.40;;
22502;SDS011;11418;48.118;9.992;2023-02-15T02:34:48;6.68;;;3.75;;
22502;SDS011;11418;48.118;9.992;2023-02-15T02:43:18;14.73;;;4.70;;
22502;SDS011;11418;48.118;9.992;2023-02-15T02:47:24;18.63;;;4.70;;
22502;SDS011;11418;48.118;9.992;2023-02-15T02:51:30;25.90;;;5.20;;
22502;SDS011;11418;48.118;9.992;2023-02-15T02:55:32;6.38;;;3.92;;
22502;SDS011;11418;48.118;9.992;2023-02-15T02:59:40;9.00;;;4.20;;
22502;SDS011;11418;48.118;9.992;2023-02-15T03:03:47;9.77;;;4.28;;
22502;SDS011;11418;48.118;9.992;2023-02-15T03:07:55;5.45;;;3.13;;
22502;SDS011;11418;48.118;9.992;2023-02-15T03:11:57;5.93;;;2.97;;
22502;SDS011;11418;48.118;9.992;2023-02-15T03:15:57;10.05;;;3.78;;
22502;SDS011;11418;48.118;9.992;2023-02-15T03:20:21;12.27;;;4.47;;
22502;SDS011;11418;48.118;9.992;2023-02-15T03:28:36;12.52;;;4.13;;
22502;SDS011;11418;48.118;9.992;2023-02-15T03:32:41;7.47;;;4.10;;
22502;SDS011;11418;48.118;9.992;2023-02-15T03:41:00;6.85;;;4.57;;
22502;SDS011;11418;48.118;9.992;2023-02-15T03:45:09;6.57;;;3.78;;
22502;SDS011;11418;48.118;9.992;2023-02-15T03:49:21;8.70;;;4.47;;
22502;SDS011;11418;48.118;9.992;2023-02-15T03:53:42;14.63;;;4.25;;
22502;SDS011;11418;48.118;9.992;2023-02-15T03:57:44;14.27;;;4.50;;
22502;SDS011;11418;48.118;9.992;2023-02-15T04:02:21;9.57;;;4.28;;
22502;SDS011;11418;48.118;9.992;2023-02-15T04:06:28;6.00;;;3.47;;
22502;SDS011;11418;48.118;9.992;2023-02-15T04:10:28;8.38;;;4.78;;
22502;SDS011;11418;48.118;9.992;2023-02-15T04:14:47;14.10;;;4.97;;
22502;SDS011;11418;48.118;9.992;2023-02-15T04:19:06;15.57;;;3.33;;
22502;SDS011;11418;48.118;9.992;2023-02-15T04:23:25;6.13;;;3.65;;
22502;SDS011;11418;48.118;9.992;2023-02-15T04:27:45;11.30;;;4.85;;
22502;SDS011;11418;48.118;9.992;2023-02-15T04:31:49;8.50;;;3.97;;
22502;SDS011;11418;48.118;9.992;2023-02-15T04:35:50;8.13;;;3.92;;
22502;SDS011;11418;48.118;9.992;2023-02-15T04:39:51;8.80;;;5.03;;
22502;SDS011;11418;48.118;9.992;2023-02-15T04:43:51;7.45;;;4.90;;
22502;SDS011;11418;48.118;9.992;2023-02-15T04:47:52;7.05;;;3.72;;
22502;SDS011;11418;48.118;9.992;2023-02-15T04:51:52;4.85;;;3.53;;
22502;SDS011;11418;48.118;9.992;2023-02-15T04:55:53;14.48;;;4.50;;
22502;SDS011;11418;48.118;9.992;2023-02-15T04:59:53;8.85;;;4.82;;
22502;SDS011;11418;48.118;9.992;2023-02-15T05:03:54;5.47;;;3.20;;
22502;SDS011;11418;48.118;9.992;2023-02-15T05:07:55;6.50;;;4.13;;
22502;SDS011;11418;48.118;9.992;2023-02-15T05:11:55;7.78;;;4.07;;
22502;SDS011;11418;48.118;9.992;2023-02-15T05:15:56;5.10;;;3.13;;
22502;SDS011;11418;48.118;9.992;2023-02-15T05:19:56;19.50;;;4.68;;
22502;SDS011;11418;48.118;9.992;2023-02-15T05:23:57;8.05;;;4.57;;
22502;SDS011;11418;48.118;9.992;2023-02-15T05:27:57;9.55;;;4.22;;
22502;SDS011;11418;48.118;9.992;2023-02-15T05:32:16;15.60;;;4.77;;
22502;SDS011;11418;48.118;9.992;2023-02-15T05:36:17;7.47;;;4.35;;
22502;SDS011;11418;48.118;9.992;2023-02-15T05:40:17;8.02;;;4.38;;
22502;SDS011;11418;48.118;9.992;2023-02-15T05:44:18;7.45;;;4.60;;
22502;SDS011;11418;48.118;9.992;2023-02-15T05:48:19;8.13;;;5.10;;
22502;SDS011;11418;48.118;9.992;2023-02-15T05:52:21;10.85;;;5.40;;
22502;SDS011;11418;48.118;9.992;2023-02-15T05:56:21;9.50;;;4.50;;
22502;SDS011;11418;48.118;9.992;2023-02-15T06:00:22;9.48;;;4.45;;
22502;SDS011;11418;48.118;9.992;2023-02-15T06:04:23;9.10;;;4.88;;
22502;SDS011;11418;48.118;9.992;2023-02-15T06:08:23;15.15;;;5.07;;
22502;SDS011;11418;48.118;9.992;2023-02-15T06:12:24;6.85;;;3.83;;
22502;SDS011;11418;48.118;9.992;2023-02-15T06:16:24;7.82;;;4.20;;
22502;SDS011;11418;48.118;9.992;2023-02-15T06:20:25;9.32;;;4.53;;
22502;SDS011;11418;48.118;9.992;2023-02-15T06:24:26;8.93;;;4.55;;
22502;SDS011;11418;48.118;9.992;2023-02-15T06:28:26;14.15;;;4.93;;
22502;SDS011;11418;48.118;9.992;2023-02-15T06:32:27;17.17;;;4.85;;
22502;SDS011;11418;48.118;9.992;2023-02-15T06:36:28;11.38;;;4.95;;
22502;SDS011;11418;48.118;9.992;2023-02-15T06:40:28;7.70;;;4.07;;
22502;SDS011;11418;48.118;9.992;2023-02-15T06:44:29;21.05;;;5.18;;
22502;SDS011;11418;48.118;9.992;2023-02-15T06:48:30;9.32;;;4.03;;
22502;SDS011;11418;48.118;9.992;2023-02-15T06:52:30;8.60;;;4.15;;
22502;SDS011;11418;48.118;9.992;2023-02-15T06:56:31;6.10;;;3.78;;
22502;SDS011;11418;48.118;9.992;2023-02-15T07:00:31;9.82;;;4.70;;
22502;SDS011;11418;48.118;9.992;2023-02-15T07:04:32;7.38;;;4.03;;
22502;SDS011;11418;48.118;9.992;2023-02-15T07:08:32;15.02;;;4.80;;
22502;SDS011;11418;48.118;9.992;2023-02-15T07:12:33;10.85;;;5.68;;
22502;SDS011;11418;48.118;9.992;2023-02-15T07:20:43;13.05;;;4.72;;
22502;SDS011;11418;48.118;9.992;2023-02-15T07:24:43;6.50;;;4.68;;
22502;SDS011;11418;48.118;9.992;2023-02-15T07:28:44;16.98;;;6.32;;
22502;SDS011;11418;48.118;9.992;2023-02-15T07:32:44;10.52;;;5.35;;
22502;SDS011;11418;48.118;9.992;2023-02-15T07:37:03;10.93;;;6.47;;
22502;SDS011;11418;48.118;9.992;2023-02-15T07:41:05;18.95;;;6.05;;
22502;SDS011;11418;48.118;9.992;2023-02-15T07:45:07;9.88;;;4.75;;
22502;SDS011;11418;48.118;9.992;2023-02-15T07:49:08;8.27;;;4.85;;
22502;SDS011;11418;48.118;9.992;2023-02-15T07:53:09;10.90;;;5.72;;
22502;SDS011;11418;48.118;9.992;2023-02-15T07:57:09;9.50;;;6.22;;
22502;SDS011;11418;48.118;9.992;2023-02-15T08:01:10;5.60;;;3.28;;
22502;SDS011;11418;48.118;9.992;2023-02-15T08:05:10;11.18;;;5.25;;
22502;SDS011;11418;48.118;9.992;2023-02-15T08:09:11;12.35;;;5.65;;
22502;SDS011;11418;48.118;9.992;2023-02-15T08:13:11;12.45;;;5.85;;
22502;SDS011;11418;48.118;9.992;2023-02-15T08:17:12;12.50;;;6.78;;
22502;SDS011;11418;48.118;9.992;2023-02-15T08:21:13;9.27;;;4.55;;
22502;SDS011;11418;48.118;9.992;2023-02-15T08:25:13;14.57;;;6.75;;
22502;SDS011;11418;48.118;9.992;2023-02-15T08:29:15;5.28;;;2.28;;
22502;SDS011;11418;48.118;9.992;2023-02-15T08:33:18;11.38;;;6.10;;
22502;SDS011;11418;48.118;9.992;2023-02-15T08:37:18;8.90;;;4.63;;
22502;SDS011;11418;48.118;9.992;2023-02-15T08:41:23;12.02;;;5.78;;
22502;SDS011;11418;48.118;9.992;2023-02-15T08:45:25;7.13;;;4.43;;
22502;SDS011;11418;48.118;9.992;2023-02-15T08:49:26;11.93;;;7.05;;
22502;SDS011;11418;48.118;9.992;2023-02-15T08:53:26;10.15;;;4.80;;
22502;SDS011;11418;48.118;9.992;2023-02-15T08:57:27;9.65;;;5.50;;
22502;SDS011;11418;48.118;9.992;2023-02-15T09:01:28;10.57;;;5.72;;
22502;SDS011;11418;48.118;9.992;2023-02-15T09:05:30;14.25;;;7.32;;
22502;SDS011;11418;48.118;9.992;2023-02-15T09:09:30;16.92;;;8.13;;
22502;SDS011;11418;48.118;9.992;2023-02-15T09:13:32;15.63;;;8.00;;
22502;SDS011;11418;48.118;9.992;2023-02-15T09:17:33;14.70;;;7.88;;
22502;SDS011;11418;48.118;9.992;2023-02-15T09:21:35;14.40;;;7.57;;
22502;SDS011;11418;48.118;9.992;2023-02-15T09:25:37;11.50;;;6.88;;
22502;SDS011;11418;48.118;9.992;2023-02-15T09:29:37;18.17;;;8.70;;
22502;SDS011;11418;48.118;9.992;2023-02-15T09:33:39;7.82;;;4.97;;
22502;SDS011;11418;48.118;9.992;2023-02-15T09:37:40;16.58;;;8.27;;
22502;SDS011;11418;48.118;9.992;2023-02-15T09:50:18;11.68;;;5.57;;
22502;SDS011;11418;48.118;9.992;2023-02-15T09:59:03;17.80;;;9.63;;
22502;SDS011;11418;48.118;9.992;2023-02-15T10:03:25;17.33;;;10.00;;
22502;SDS011;11418;48.118;9.992;2023-02-15T10:25:46;25.45;;;12.55;;
22502;SDS011;11418;48.118;9.992;2023-02-15T10:34:08;21.08;;;9.88;;
22502;SDS011;11418;48.118;9.992;2023-02-15T10:42:50;14.65;;;7.55;;
22502;SDS011;11418;48.118;9.992;2023-02-15T10:47:23;22.65;;;10.88;;
22502;SDS011;11418;48.118;9.992;2023-02-15T10:51:53;19.15;;;9.93;;
22502;SDS011;11418;48.118;9.992;2023-02-15T10:56:03;19.13;;;8.95;;
22502;SDS011;11418;48.118;9.992;2023-02-15T11:00:14;18.48;;;9.32;;
22502;SDS011;11418;48.118;9.992;2023-02-15T11:08:16;19.45;;;9.80;;
22502;SDS011;11418;48.118;9.992;2023-02-15T11:12:23;18.60;;;9.48;;
22502;SDS011;11418;48.118;9.992;2023-02-15T11:16:31;18.40;;;9.27;;
22502;SDS011;11418;48.118;9.992;2023-02-15T11:25:01;16.50;;;8.48;;
22502;SDS011;11418;48.118;9.992;2023-02-15T11:29:25;12.15;;;7.13;;
22502;SDS011;11418;48.118;9.992;2023-02-15T11:33:55;15.13;;;8.10;;
22502;SDS011;11418;48.118;9.992;2023-02-15T11:38:06;15.02;;;7.57;;
22502;SDS011;11418;48.118;9.992;2023-02-15T11:42:15;15.45;;;8.23;;
22502;SDS011;11418;48.118;9.992;2023-02-15T11:46:18;16.17;;;8.75;;
22502;SDS011;11418;48.118;9.992;2023-02-15T11:50:30;17.85;;;8.70;;
22502;SDS011;11418;48.118;9.992;2023-02-15T11:54:33;19.08;;;9.30;;
22502;SDS011;11418;48.118;9.992;2023-02-15T12:02:44;17.17;;;9.25;;
22502;SDS011;11418;48.118;9.992;2023-02-15T12:06:51;16.33;;;8.27;;
22502;SDS011;11418;48.118;9.992;2023-02-15T12:11:03;15.10;;;9.00;;
22502;SDS011;11418;48.118;9.992;2023-02-15T12:15:12;15.80;;;8.48;;
22502;SDS011;11418;48.118;9.992;2023-02-15T12:27:58;16.75;;;8.85;;
22502;SDS011;11418;48.118;9.992;2023-02-15T12:31:58;17.23;;;8.63;;
22502;SDS011;11418;48.118;9.992;2023-02-15T12:36:19;16.42;;;9.07;;
22502;SDS011;11418;48.118;9.992;2023-02-15T12:40:21;19.77;;;9.77;;
22502;SDS011;11418;48.118;9.992;2023-02-15T12:44:26;17.98;;;8.23;;
22502;SDS011;11418;48.118;9.992;2023-02-15T12:48:29;21.33;;;9.32;;
22502;SDS011;11418;48.118;9.992;2023-02-15T12:52:29;17.38;;;7.65;;
22502;SDS011;11418;48.118;9.992;2023-02-15T12:56:30;21.40;;;9.15;;
22502;SDS011;11418;48.118;9.992;2023-02-15T13:00:31;18.15;;;8.60;;
22502;SDS011;11418;48.118;9.992;2023-02-15T13:04:32;19.38;;;9.57;;
22502;SDS011;11418;48.118;9.992;2023-02-15T13:08:35;18.45;;;9.13;;
22502;SDS011;11418;48.118;9.992;2023-02-15T13:12:46;21.25;;;9.38;;
22502;SDS011;11418;48.118;9.992;2023-02-15T13:16:48;16.92;;;8.20;;
22502;SDS011;11418;48.118;9.992;2023-02-15T13:20:50;17.33;;;9.15;;
22502;SDS011;11418;48.118;9.992;2023-02-15T13:24:59;18.10;;;9.57;;
22502;SDS011;11418;48.118;9.992;2023-02-15T13:29:18;16.58;;;8.35;;
22502;SDS011;11418;48.118;9.992;2023-02-15T13:33:24;17.55;;;9.18;;
22502;SDS011;11418;48.118;9.992;2023-02-15T13:37:53;16.20;;;8.32;;
22502;SDS011;11418;48.118;9.992;2023-02-15T13:42:05;17.27;;;8.10;;
22502;SDS011;11418;48.118;9.992;2023-02-15T13:46:23;17.27;;;8.15;;
22502;SDS011;11418;48.118;9.992;2023-02-15T13:51:06;18.02;;;8.35;;
22502;SDS011;11418;48.118;9.992;2023-02-15T13:55:23;16.52;;;8.07;;
22502;SDS011;11418;48.118;9.992;2023-02-15T14:03:43;16.08;;;7.75;;
22502;SDS011;11418;48.118;9.992;2023-02-15T14:16:37;17.55;;;8.57;;
22502;SDS011;11418;48.118;9.992;2023-02-15T14:25:05;14.68;;;7.90;;
22502;SDS011;11418;48.118;9.992;2023-02-15T14:33:38;15.38;;;7.82;;
22502;SDS011;11418;48.118;9.992;2023-02-15T14:42:04;16.83;;;7.78;;
22502;SDS011;11418;48.118;9.992;2023-02-15T14:50:44;17.02;;;8.00;;
22502;SDS011;11418;48.118;9.992;2023-02-15T15:02:50;18.58;;;9.05;;
22502;SDS011;11418;48.118;9.992;2023-02-15T15:23:46;15.57;;;8.13;;
22502;SDS011;11418;48.118;9.992;2023-02-15T15:27:49;14.05;;;7.55;;
22502;SDS011;11418;48.118;9.992;2023-02-15T15:31:51;16.85;;;8.13;;
22502;SDS011;11418;48.118;9.992;2023-02-15T15:49:00;17.90;;;7.55;;
22502;SDS011;11418;48.118;9.992;2023-02-15T15:53:06;17.00;;;7.85;;
22502;SDS011;11418;48.118;9.992;2023-02-15T15:57:29;14.50;;;7.78;;
22502;SDS011;11418;48.118;9.992;2023-02-15T16:01:41;17.52;;;7.78;;
22502;SDS011;11418;48.118;9.992;2023-02-15T16:05:43;14.23;;;7.60;;
22502;SDS011;11418;48.118;9.992;2023-02-15T16:09:53;19.20;;;8.57;;
22502;SDS011;11418;48.118;9.992;2023-02-15T16:13:58;19.50;;;10.40;;
22502;SDS011;11418;48.118;9.992;2023-02-15T16:18:00;21.48;;;11.35;;
22502;SDS011;11418;48.118;9.992;2023-02-15T16:22:01;23.83;;;11.63;;
22502;SDS011;11418;48.118;9.992;2023-02-15T16:26:18;26.05;;;12.45;;
22502;SDS011;11418;48.118;9.992;2023-02-15T16:30:26;20.92;;;11.00;;
22502;SDS011;11418;48.118;9.992;2023-02-15T16:34:29;21.67;;;10.75;;
22502;SDS011;11418;48.118;9.992;2023-02-15T16:38:47;23.42;;;11.38;;
22502;SDS011;11418;48.118;9.992;2023-02-15T16:42:55;21.52;;;10.90;;
22502;SDS011;11418;48.118;9.992;2023-02-15T16:47:00;32.47;;;15.15;;
22502;SDS011;11418;48.118;9.992;2023-02-15T16:51:01;23.15;;;11.77;;
22502;SDS011;11418;48.118;9.992;2023-02-15T16:55:03;21.33;;;10.35;;
22502;SDS011;11418;48.118;9.992;2023-02-15T16:59:14;21.40;;;10.30;;
22502;SDS011;11418;48.118;9.992;2023-02-15T17:03:30;21.60;;;9.93;;
22502;SDS011;11418;48.118;9.992;2023-02-15T17:07:31;20.15;;;9.98;;
22502;SDS011;11418;48.118;9.992;2023-02-15T17:11:34;21.50;;;10.50;;
22502;SDS011;11418;48.118;9.992;2023-02-15T17:15:40;23.77;;;9.32;;
22502;SDS011;11418;48.118;9.992;2023-02-15T17:19:50;21.23;;;10.43;;
22502;SDS011;11418;48.118;9.992;2023-02-15T17:23:56;28.15;;;9.80;;
22502;SDS011;11418;48.118;9.992;2023-02-15T17:28:00;22.50;;;9.45;;
22502;SDS011;11418;48.118;9.992;2023-02-15T17:32:01;25.55;;;9.55;;
22502;SDS011;11418;48.118;9.992;2023-02-15T17:40:23;21.83;;;11.00;;
22502;SDS011;11418;48.118;9.992;2023-02-15T17:44:25;21.38;;;11.00;;
22502;SDS011;11418;48.118;9.992;2023-02-15T17:48:33;21.27;;;11.07;;
22502;SDS011;11418;48.118;9.992;2023-02-15T17:52:35;23.10;;;9.52;;
22502;SDS011;11418;48.118;9.992;2023-02-15T17:56:37;25.92;;;13.27;;
22502;SDS011;11418;48.118;9.992;2023-02-15T18:00:39;30.00;;;13.45;;
22502;SDS011;11418;48.118;9.992;2023-02-15T18:05:01;22.73;;;10.43;;
22502;SDS011;11418;48.118;9.992;2023-02-15T18:09:21;21.88;;;9.27;;
22502;SDS011;11418;48.118;9.992;2023-02-15T18:13:40;16.10;;;8.45;;
22502;SDS011;11418;48.118;9.992;2023-02-15T18:17:42;23.50;;;8.25;;
22502;SDS011;11418;48.118;9.992;2023-02-15T18:21:44;18.02;;;8.25;;
22502;SDS011;11418;48.118;9.992;2023-02-15T18:25:45;20.65;;;9.95;;
22502;SDS011;11418;48.118;9.992;2023-02-15T18:29:46;21.30;;;9.18;;
22502;SDS011;11418;48.118;9.992;2023-02-15T18:33:48;18.42;;;8.68;;
22502;SDS011;11418;48.118;9.992;2023-02-15T18:37:52;20.15;;;9.07;;
22502;SDS011;11418;48.118;9.992;2023-02-15T18:41:53;20.40;;;9.45;;
22502;SDS011;11418;48.118;9.992;2023-02-15T18:45:54;18.10;;;8.88;;
22502;SDS011;11418;48.118;9.992;2023-02-15T18:49:54;17.70;;;8.60;;
22502;SDS011;11418;48.118;9.992;2023-02-15T18:54:00;19.90;;;9.25;;
22502;SDS011;11418;48.118;9.992;2023-02-15T18:58:01;21.23;;;8.88;;
22502;SDS011;11418;48.118;9.992;2023-02-15T19:02:02;18.88;;;9.40;;
22502;SDS011;11418;48.118;9.992;2023-02-15T19:06:02;22.40;;;10.20;;
22502;SDS011;11418;48.118;9.992;2023-02-15T19:10:07;27.88;;;12.40;;
22502;SDS011;11418;48.118;9.992;2023-02-15T19:14:19;33.38;;;13.00;;
22502;SDS011;11418;48.118;9.992;2023-02-15T19:18:29;28.73;;;12.45;;
22502;SDS011;11418;48.118;9.992;2023-02-15T19:22:29;34.40;;;14.68;;
22502;SDS011;11418;48.118;9.992;2023-02-15T19:26:39;28.00;;;12.90;;
22502;SDS011;11418;48.118;9.992;2023-02-15T19:30:41;28.30;;;12.70;;
22502;SDS011;11418;48.118;9.992;2023-02-15T19:34:42;25.38;;;11.07;;
22502;SDS011;11418;48.118;9.992;2023-02-15T19:38:46;21.33;;;10.93;;
22502;SDS011;11418;48.118;9.992;2023-02-15T19:42:50;23.42;;;10.07;;
22502;SDS011;11418;48.118;9.992;2023-02-15T19:46:51;21.17;;;9.75;;
22502;SDS011;11418;48.118;9.992;2023-02-15T19:50:51;32.47;;;13.68;;
22502;SDS011;11418;48.118;9.992;2023-02-15T19:54:52;32.63;;;12.43;;
22502;SDS011;11418;48.118;9.992;2023-02-15T19:58:53;35.38;;;12.15;;
22502;SDS011;11418;48.118;9.992;2023-02-15T20:02:56;29.27;;;12.52;;
22502;SDS011;11418;48.118;9.992;2023-02-15T20:06:59;25.88;;;10.40;;
22502;SDS011;11418;48.118;9.992;2023-02-15T20:11:01;24.83;;;11.57;;
22502;SDS011;11418;48.118;9.992;2023-02-15T20:15:04;28.60;;;10.63;;
22502;SDS011;11418;48.118;9.992;2023-02-15T20:19:16;20.52;;;10.70;;
22502;SDS011;11418;48.118;9.992;2023-02-15T20:23:19;21.75;;;10.45;;
22502;SDS011;11418;48.118;9.992;2023-02-15T20:27:27;23.73;;;9.75;;
22502;SDS011;11418;48.118;9.992;2023-02-15T20:31:28;22.98;;;10.63;;
22502;SDS011;11418;48.118;9.992;2023-02-15T20:35:29;19.90;;;10.60;;
22502;SDS011;11418;48.118;9.992;2023-02-15T20:39:30;25.50;;;11.65;;
22502;SDS011;11418;48.118;9.992;2023-02-15T20:43:32;25.08;;;11.27;;
22502;SDS011;11418;48.118;9.992;2023-02-15T20:47:33;20.08;;;9.93;;
22502;SDS011;11418;48.118;9.992;2023-02-15T20:51:33;21.27;;;9.45;;
22502;SDS011;11418;48.118;9.992;2023-02-15T20:55:34;22.15;;;9.40;;
22502;SDS011;11418;48.118;9.992;2023-02-15T20:59:34;26.98;;;10.93;;
22502;SDS011;11418;48.118;9.992;2023-02-15T21:03:36;20.75;;;9.85;;
22502;SDS011;11418;48.118;9.992;2023-02-15T21:07:36;26.05;;;10.20;;
22502;SDS011;11418;48.118;9.992;2023-02-15T21:11:37;25.20;;;10.30;;
22502;SDS011;11418;48.118;9.992;2023-02-15T21:15:39;17.17;;;8.68;;
22502;SDS011;11418;48.118;9.992;2023-02-15T21:19:40;20.90;;;9.27;;
22502;SDS011;11418;48.118;9.992;2023-02-15T21:23:41;22.95;;;9.18;;
22502;SDS011;11418;48.118;9.992;2023-02-15T21:27:43;15.68;;;7.50;;
22502;SDS011;11418;48.118;9.992;2023-02-15T21:31:45;20.60;;;8.23;;
22502;SDS011;11418;48.118;9.992;2023-02-15T21:35:46;15.82;;;7.30;;
22502;SDS011;11418;48.118;9.992;2023-02-15T21:39:50;16.10;;;7.95;;
22502;SDS011;11418;48.118;9.992;2023-02-15T21:43:50;20.05;;;8.43;;
22502;SDS011;11418;48.118;9.992;2023-02-15T21:48:09;17.13;;;7.95;;
22502;SDS011;11418;48.118;9.992;2023-02-15T21:52:13;15.77;;;7.13;;
22502;SDS011;11418;48.118;9.992;2023-02-15T21:56:20;15.43;;;7.85;;
22502;SDS011;11418;48.118;9.992;2023-02-15T22:00:22;16.30;;;7.85;;
22502;SDS011;11418;48.118;9.992;2023-02-15T22:04:25;22.77;;;8.30;;
22502;SDS011;11418;48.118;9.992;2023-02-15T22:08:27;13.80;;;6.22;;
22502;SDS011;11418;48.118;9.992;2023-02-15T22:12:28;12.43;;;6.05;;
22502;SDS011;11418;48.118;9.992;2023-02-15T22:16:28;16.05;;;6.60;;
22502;SDS011;11418;48.118;9.992;2023-02-15T22:20:29;18.15;;;8.13;;
22502;SDS011;11418;48.118;9.992;2023-02-15T22:24:30;16.27;;;6.97;;
22502;SDS011;11418;48.118;9.992;2023-02-15T22:28:32;15.88;;;6.63;;
22502;SDS011;11418;48.118;9.992;2023-02-15T22:32:34;20.48;;;7.20;;
22502;SDS011;11418;48.118;9.992;2023-02-15T22:36:34;22.75;;;7.45;;
22502;SDS011;11418;48.118;9.992;2023-02-15T22:40:35;11.90;;;6.43;;
22502;SDS011;11418;48.118;9.992;2023-02-15T22:44:35;20.23;;;7.88;;
22502;SDS011;11418;48.118;9.992;2023-02-15T22:48:36;17.92;;;8.35;;
22502;SDS011;11418;48.118;9.992;2023-02-15T22:52:37;16.88;;;7.70;;
22502;SDS011;11418;48.118;9.992;2023-02-15T22:56:38;19.02;;;7.03;;
22502;SDS011;11418;48.118;9.992;2023-02-15T23:00:41;19.33;;;7.72;;
22502;SDS011;11418;48.118;9.992;2023-02-15T23:04:41;23.40;;;9.63;;
22502;SDS011;11418;48.118;9.992;2023-02-15T23:08:43;23.63;;;10.57;;
22502;SDS011;11418;48.118;9.992;2023-02-15T23:12:44;21.83;;;9.75;;
22502;SDS011;11418;48.118;9.992;2023-02-15T23:17:03;20.97;;;8.93;;
22502;SDS011;11418;48.118;9.992;2023-02-15T23:25:10;21.45;;;10.30;;
22502;SDS011;11418;48.118;9.992;2023-02-15T23:29:13;16.27;;;6.90;;
22502;SDS011;11418;48.118;9.992;2023-02-15T23:33:19;13.77;;;7.03;;
22502;SDS011;11418;48.118;9.992;2023-02-15T23:37:22;19.80;;;7.03;;
22502;SDS011;11418;48.118;9.992;2023-02-15T23:41:24;17.60;;;7.32;;
22502;SDS011;11418;48.118;9.992;2023-02-15T23:45:27;20.13;;;7.28;;
22502;SDS011;11418;48.118;9.992;2023-02-15T23:49:28;18.85;;;8.00;;
22502;SDS011;11418;48.118;9.992;2023-02-15T23:53:29;17.88;;;7.30;;
22502;SDS011;11418;48.118;9.992;2023-02-15T23:57:29;22.38;;;8.80;;
